Time;durP1;ratioP1;P1;durP2;ratioP2;P2;SDS_P1;SDS_P2;PMS_P1;PMS_P2;Temp;Humidity;BMP_temperature;BMP_pressure;BME280_temperature;BME280_humidity;BME280_pressure;Samples;Min_cycle;Max_cycle;Signal;HPM_P1;HPM_P2
2022/11/30 00:00:08;;;;;;;4.73;2.80;;;20.70;86.90;;;;;;4998508;28;20463;-77
2022/11/30 00:02:35;;;;;;;4.85;3.15;;;20.70;86.80;;;;;;4993020;28;20818;-77
2022/11/30 00:05:02;;;;;;;3.22;2.70;;;20.70;86.80;;;;;;4990847;28;20208;-78
2022/11/30 00:07:30;;;;;;;2.80;2.60;;;20.70;86.80;;;;;;4995354;28;20208;-77
2022/11/30 00:09:57;;;;;;;2.88;2.63;;;20.70;86.70;;;;;;4997085;28;20873;-77
2022/11/30 00:12:23;;;;;;;2.83;2.50;;;20.80;86.50;;;;;;4999276;28;20212;-77
2022/11/30 00:14:50;;;;;;;4.38;2.47;;;20.70;86.60;;;;;;5005811;28;20223;-78
2022/11/30 00:17:18;;;;;;;2.65;2.30;;;20.70;86.70;;;;;;4985040;28;20564;-78
2022/11/30 00:19:45;;;;;;;4.38;2.50;;;20.70;86.60;;;;;;4976923;28;20779;-77
2022/11/30 00:22:11;;;;;;;2.95;2.45;;;20.70;86.60;;;;;;4986204;28;20197;-77
2022/11/30 00:24:39;;;;;;;3.78;2.30;;;20.70;86.60;;;;;;4984227;28;20194;-78
2022/11/30 00:27:07;;;;;;;4.28;2.45;;;20.70;86.80;;;;;;4990561;28;20201;-76
2022/11/30 00:29:34;;;;;;;3.25;2.50;;;20.70;87.00;;;;;;5002733;28;20196;-77
2022/11/30 00:32:00;;;;;;;3.78;2.40;;;20.70;86.80;;;;;;4998548;28;20211;-77
2022/11/30 00:34:27;;;;;;;4.88;3.10;;;20.70;86.70;;;;;;4990500;28;20629;-77
2022/11/30 00:36:54;;;;;;;2.97;2.67;;;20.70;86.80;;;;;;4996720;28;20199;-77
2022/11/30 00:39:21;;;;;;;3.35;2.90;;;20.60;86.80;;;;;;4994953;28;20205;-77
2022/11/30 00:41:49;;;;;;;2.70;2.50;;;20.60;86.90;;;;;;4989025;28;20211;-78
2022/11/30 00:44:16;;;;;;;4.25;2.67;;;20.60;87.00;;;;;;4992673;28;20208;-77
2022/11/30 00:46:42;;;;;;;2.60;2.40;;;20.60;86.90;;;;;;4996724;28;20205;-77
2022/11/30 00:49:09;;;;;;;2.65;1.90;;;20.60;86.90;;;;;;5009997;28;20192;-77
2022/11/30 00:51:37;;;;;;;3.25;2.53;;;20.60;86.80;;;;;;4993021;28;20205;-78
2022/11/30 00:54:04;;;;;;;2.50;2.30;;;20.60;86.70;;;;;;4988130;28;20249;-77
2022/11/30 00:56:31;;;;;;;3.58;2.63;;;20.60;86.70;;;;;;4986958;28;20227;-77
2022/11/30 00:58:59;;;;;;;2.53;2.20;;;20.60;86.70;;;;;;4999999;28;20212;-77
2022/11/30 01:01:30;;;;;;;3.10;2.80;;;20.60;86.70;;;;;;4991785;28;20197;-77
2022/11/30 01:03:56;;;;;;;2.72;2.20;;;20.50;86.70;;;;;;4987074;28;20205;-77
2022/11/30 01:06:23;;;;;;;2.78;2.40;;;20.60;86.80;;;;;;4999757;28;20196;-77
2022/11/30 01:08:50;;;;;;;2.88;2.67;;;20.50;87.00;;;;;;4992445;28;20660;-77
2022/11/30 01:11:20;;;;;;;4.30;3.10;;;20.60;86.90;;;;;;4985851;28;20232;-78
2022/11/30 01:13:47;;;;;;;3.28;2.50;;;20.60;87.60;;;;;;5001211;28;20200;-77
2022/11/30 01:16:18;;;;;;;2.47;2.28;;;20.60;86.70;;;;;;4994657;28;20238;-78
2022/11/30 01:18:45;;;;;;;3.10;2.70;;;20.60;86.90;;;;;;4991073;28;20763;-77
2022/11/30 01:21:13;;;;;;;2.92;2.38;;;20.50;86.90;;;;;;4988467;28;20224;-77
2022/11/30 01:23:41;;;;;;;2.53;2.33;;;20.50;87.00;;;;;;4996780;28;20216;-78
2022/11/30 01:26:09;;;;;;;2.35;2.15;;;20.50;87.00;;;;;;4985613;28;20201;-77
2022/11/30 01:28:39;;;;;;;3.10;2.53;;;20.50;86.90;;;;;;4996578;28;20213;-77
2022/11/30 01:31:09;;;;;;;2.92;2.72;;;20.60;86.80;;;;;;4987472;28;20215;-77
2022/11/30 01:33:37;;;;;;;6.07;2.80;;;20.60;86.60;;;;;;5001073;28;20193;-78
2022/11/30 01:36:06;;;;;;;3.55;2.40;;;20.50;86.60;;;;;;4994620;28;20228;-77
2022/11/30 01:38:34;;;;;;;2.33;1.98;;;20.60;86.50;;;;;;4989741;28;20197;-78
2022/11/30 01:41:01;;;;;;;2.92;2.25;;;20.60;86.60;;;;;;4990615;28;20212;-77
2022/11/30 01:43:38;;;;;;;3.85;2.63;;;20.60;86.70;;;;;;5003426;28;20580;-77
2022/11/30 01:46:06;;;;;;;2.58;2.35;;;20.50;86.50;;;;;;4999339;28;20651;-78
2022/11/30 01:48:33;;;;;;;2.53;1.98;;;20.40;86.90;;;;;;5000659;28;20642;-77
2022/11/30 01:51:02;;;;;;;3.15;2.25;;;20.50;87.10;;;;;;4996055;28;20197;-77
2022/11/30 01:53:29;;;;;;;3.53;3.22;;;20.50;86.80;;;;;;4991146;28;20231;-77
2022/11/30 01:55:56;;;;;;;2.30;2.10;;;20.60;86.90;;;;;;4989222;28;20711;-76
2022/11/30 01:58:26;;;;;;;3.83;2.60;;;20.50;86.80;;;;;;5002910;28;20246;-78
2022/11/30 02:00:53;;;;;;;3.05;2.45;;;20.50;86.90;;;;;;5003574;28;20196;-77
2022/11/30 02:03:26;;;;;;;3.42;2.60;;;20.50;87.00;;;;;;4992632;28;20198;-77
2022/11/30 02:05:53;;;;;;;3.33;2.88;;;20.40;87.00;;;;;;4986337;28;20644;-78
2022/11/30 02:08:22;;;;;;;3.15;1.98;;;20.40;87.00;;;;;;5003080;28;20197;-77
2022/11/30 02:10:53;;;;;;;3.70;2.45;;;20.50;86.80;;;;;;4988563;28;20209;-77
2022/11/30 02:13:44;;;;;;;3.15;2.63;;;20.50;86.60;;;;;;4992682;28;20197;-77
2022/11/30 02:16:22;;;;;;;2.95;2.53;;;20.50;86.50;;;;;;4995829;28;20224;-77
2022/11/30 02:18:58;;;;;;;2.90;2.70;;;20.50;86.40;;;;;;4996322;28;20192;-77
2022/11/30 02:21:32;;;;;;;2.30;2.10;;;20.50;86.40;;;;;;4994513;28;20207;-77
2022/11/30 02:24:18;;;;;;;2.50;2.30;;;20.50;86.30;;;;;;4989389;28;20231;-77
2022/11/30 02:26:57;;;;;;;4.57;3.38;;;20.50;86.30;;;;;;4994859;28;20217;-77
2022/11/30 02:29:29;;;;;;;2.30;2.08;;;20.40;86.50;;;;;;4994262;28;20683;-77
2022/11/30 02:32:03;;;;;;;2.63;2.42;;;20.40;86.90;;;;;;4995421;28;20205;-77
2022/11/30 02:34:32;;;;;;;2.80;2.25;;;20.50;86.80;;;;;;5002584;28;20666;-77
2022/11/30 02:37:01;;;;;;;2.92;2.72;;;20.50;86.70;;;;;;4991941;28;20201;-77
2022/11/30 02:39:27;;;;;;;2.50;2.30;;;20.50;86.70;;;;;;4990842;28;20208;-77
2022/11/30 02:41:54;;;;;;;3.05;2.13;;;20.40;86.70;;;;;;4996147;28;20197;-77
2022/11/30 02:44:22;;;;;;;3.13;1.95;;;20.40;86.80;;;;;;4993577;28;20201;-77
2022/11/30 02:47:01;;;;;;;2.15;1.90;;;20.40;86.90;;;;;;5000607;28;20219;-78
2022/11/30 02:49:35;;;;;;;2.88;2.33;;;20.40;86.80;;;;;;4993583;28;20647;-78
2022/11/30 02:52:03;;;;;;;2.30;2.10;;;20.50;86.60;;;;;;4994906;28;20212;-78
2022/11/30 02:54:30;;;;;;;2.78;2.28;;;20.40;86.70;;;;;;4999525;28;20213;-78
2022/11/30 02:56:58;;;;;;;1.92;1.73;;;20.50;86.90;;;;;;4995862;28;20213;-78
2022/11/30 02:59:24;;;;;;;2.25;1.98;;;20.50;86.30;;;;;;5009969;28;20235;-78
2022/11/30 03:01:51;;;;;;;2.38;1.65;;;20.40;86.30;;;;;;5003253;28;20651;-77
2022/11/30 03:04:19;;;;;;;2.58;2.28;;;20.40;86.40;;;;;;5003133;28;20247;-77
2022/11/30 03:06:47;;;;;;;1.95;1.75;;;20.40;86.70;;;;;;4993795;28;20212;-77
2022/11/30 03:09:14;;;;;;;1.98;1.77;;;20.40;86.50;;;;;;4996256;28;20672;-78
2022/11/30 03:11:40;;;;;;;2.00;1.80;;;20.40;86.80;;;;;;4992724;28;20235;-78
2022/11/30 03:14:07;;;;;;;2.38;2.17;;;20.40;86.90;;;;;;4993776;28;20691;-78
2022/11/30 03:16:34;;;;;;;2.92;1.95;;;20.40;86.80;;;;;;4999674;28;20251;-77
2022/11/30 03:19:00;;;;;;;2.17;1.98;;;20.40;86.70;;;;;;5004288;28;20211;-77
2022/11/30 03:21:29;;;;;;;2.65;1.98;;;20.40;86.70;;;;;;4992050;28;20212;-77
2022/11/30 03:23:55;;;;;;;1.65;1.55;;;20.40;86.80;;;;;;4991288;28;20243;-77
2022/11/30 03:26:22;;;;;;;1.88;1.55;;;20.40;86.90;;;;;;4995151;28;20205;-78
2022/11/30 03:28:49;;;;;;;2.00;1.80;;;20.30;87.00;;;;;;5001292;28;20516;-77
2022/11/30 03:31:15;;;;;;;2.40;1.98;;;20.40;86.90;;;;;;4993465;28;20205;-76
2022/11/30 03:33:42;;;;;;;3.28;2.25;;;20.40;86.60;;;;;;4991226;28;20198;-76
2022/11/30 03:36:11;;;;;;;2.22;1.98;;;20.40;86.40;;;;;;4993121;28;20570;-77
2022/11/30 03:38:39;;;;;;;2.83;2.58;;;20.40;86.30;;;;;;4991448;28;20208;-77
2022/11/30 03:41:08;;;;;;;2.45;2.25;;;20.40;86.20;;;;;;4989982;28;20569;-77
2022/11/30 03:43:35;;;;;;;2.05;1.83;;;20.40;86.40;;;;;;5010098;28;20551;-78
2022/11/30 03:46:03;;;;;;;3.08;2.40;;;20.40;86.30;;;;;;4989665;28;20208;-77
2022/11/30 03:48:30;;;;;;;1.92;1.70;;;20.40;86.60;;;;;;4998747;28;20204;-77
2022/11/30 03:50:57;;;;;;;2.22;2.00;;;20.30;86.90;;;;;;4989711;28;20244;-77
2022/11/30 03:53:25;;;;;;;2.47;1.98;;;20.40;86.80;;;;;;4992921;28;20649;-77
2022/11/30 03:55:54;;;;;;;2.40;2.20;;;20.40;86.70;;;;;;4987170;28;20689;-77
2022/11/30 03:58:22;;;;;;;1.77;1.67;;;20.40;86.60;;;;;;4996249;28;20205;-77
2022/11/30 04:00:49;;;;;;;2.28;1.80;;;20.40;86.70;;;;;;5001929;28;20196;-78
2022/11/30 04:03:16;;;;;;;2.70;2.00;;;20.30;86.70;;;;;;5003898;28;20204;-77
2022/11/30 04:05:43;;;;;;;2.00;1.80;;;20.30;86.90;;;;;;4990087;28;20198;-77
2022/11/30 04:08:10;;;;;;;2.17;1.98;;;20.30;86.90;;;;;;4995796;28;20197;-77
2022/11/30 04:10:36;;;;;;;1.85;1.60;;;20.30;86.90;;;;;;4991896;28;20212;-78
2022/11/30 04:13:04;;;;;;;2.67;2.35;;;20.30;86.80;;;;;;4992828;28;20200;-77
2022/11/30 04:15:31;;;;;;;2.50;2.10;;;20.30;86.60;;;;;;5000148;28;20232;-77
2022/11/30 04:17:58;;;;;;;2.47;1.95;;;20.30;86.40;;;;;;4992717;28;20216;-77
2022/11/30 04:20:24;;;;;;;2.42;2.00;;;20.30;86.60;;;;;;4991413;28;20538;-77
2022/11/30 04:22:51;;;;;;;2.20;1.70;;;20.20;86.80;;;;;;4992757;28;20212;-78
2022/11/30 04:25:18;;;;;;;2.25;2.05;;;20.20;86.90;;;;;;4986815;28;20201;-77
2022/11/30 04:27:46;;;;;;;2.10;1.70;;;20.20;87.00;;;;;;4990641;28;20576;-77
2022/11/30 04:30:18;;;;;;;1.80;1.60;;;20.20;86.90;;;;;;5005339;28;20671;-77
2022/11/30 04:32:44;;;;;;;2.50;2.30;;;20.20;87.10;;;;;;4998461;28;20227;-77
2022/11/30 04:35:11;;;;;;;2.00;1.80;;;20.20;87.20;;;;;;4997839;28;20219;-77
2022/11/30 04:37:38;;;;;;;1.90;1.70;;;20.20;86.80;;;;;;5006570;28;20200;-77
2022/11/30 04:40:06;;;;;;;2.65;1.95;;;20.30;86.50;;;;;;4992435;28;20211;-78
2022/11/30 04:42:32;;;;;;;2.95;2.17;;;20.40;86.40;;;;;;4992172;28;20200;-77
2022/11/30 04:44:59;;;;;;;2.20;2.00;;;20.50;86.20;;;;;;4993229;28;20216;-77
2022/11/30 04:47:28;;;;;;;1.70;1.60;;;20.60;86.00;;;;;;4995270;28;20619;-78
2022/11/30 04:49:55;;;;;;;2.17;1.80;;;20.60;85.80;;;;;;4989305;28;20200;-77
2022/11/30 04:52:22;;;;;;;1.65;1.55;;;20.70;85.70;;;;;;4996918;28;20200;-77
2022/11/30 04:54:48;;;;;;;2.17;1.90;;;20.70;85.50;;;;;;4986315;28;20200;-77
2022/11/30 04:57:15;;;;;;;1.88;1.77;;;20.80;85.30;;;;;;4990753;28;20207;-77
2022/11/30 04:59:42;;;;;;;2.22;2.03;;;20.80;85.10;;;;;;4995162;28;20204;-77
2022/11/30 05:02:09;;;;;;;2.08;1.88;;;20.80;85.00;;;;;;4991529;28;20652;-77
2022/11/30 05:04:37;;;;;;;1.90;1.80;;;20.90;85.00;;;;;;4988061;28;20608;-77
2022/11/30 05:07:03;;;;;;;1.80;1.70;;;20.90;84.90;;;;;;4992306;28;20205;-78
2022/11/30 05:09:30;;;;;;;2.20;1.88;;;21.00;84.90;;;;;;5002412;28;20203;-77
2022/11/30 05:11:57;;;;;;;2.40;1.90;;;21.00;84.80;;;;;;5001978;28;20204;-77
2022/11/30 05:14:24;;;;;;;1.70;1.58;;;21.00;84.70;;;;;;4996491;28;20204;-79
2022/11/30 05:16:50;;;;;;;1.70;1.60;;;21.00;84.70;;;;;;4996214;28;20229;-77
2022/11/30 05:19:17;;;;;;;1.43;1.20;;;20.90;84.50;;;;;;4995986;28;20663;-77
2022/11/30 05:21:46;;;;;;;1.80;1.65;;;21.00;84.50;;;;;;4996050;28;20468;-77
2022/11/30 05:24:12;;;;;;;3.08;1.80;;;21.00;84.40;;;;;;4991611;28;20209;-77
2022/11/30 05:26:39;;;;;;;1.90;1.30;;;21.10;84.50;;;;;;4998539;28;20201;-78
2022/11/30 05:29:06;;;;;;;3.10;1.85;;;21.00;84.30;;;;;;5004462;28;20664;-77
2022/11/30 05:31:33;;;;;;;2.00;1.70;;;21.00;84.30;;;;;;4992002;28;20210;-77
2022/11/30 05:34:00;;;;;;;1.95;1.58;;;21.00;84.30;;;;;;5003273;28;20969;-78
2022/11/30 05:36:27;;;;;;;1.93;1.70;;;21.00;84.30;;;;;;4996491;28;20254;-77
2022/11/30 05:38:55;;;;;;;2.00;1.90;;;21.00;84.30;;;;;;4995364;28;20978;-77
2022/11/30 05:41:22;;;;;;;2.25;2.03;;;21.10;84.30;;;;;;4998938;28;20471;-78
2022/11/30 05:43:48;;;;;;;2.00;1.80;;;21.10;84.20;;;;;;4994488;28;20459;-78
2022/11/30 05:46:15;;;;;;;1.60;1.50;;;21.10;84.20;;;;;;4999737;28;20472;-77
2022/11/30 05:48:42;;;;;;;2.25;1.75;;;21.10;84.10;;;;;;4987869;28;20483;-77
2022/11/30 05:51:11;;;;;;;2.10;1.73;;;21.10;84.00;;;;;;4999732;28;20201;-78
2022/11/30 05:53:38;;;;;;;2.10;2.00;;;21.10;84.00;;;;;;4991784;28;20472;-77
2022/11/30 05:56:07;;;;;;;2.10;1.70;;;21.20;84.00;;;;;;4988448;28;20483;-78
2022/11/30 05:58:34;;;;;;;1.80;1.67;;;21.10;84.00;;;;;;4990174;28;20463;-77
2022/11/30 06:01:01;;;;;;;2.50;2.13;;;21.20;84.00;;;;;;4996488;28;20463;-78
2022/11/30 06:03:28;;;;;;;2.07;1.50;;;21.20;83.90;;;;;;4990355;28;20452;-77
2022/11/30 06:05:55;;;;;;;1.80;1.70;;;21.20;84.00;;;;;;5007436;28;21005;-77
2022/11/30 06:08:23;;;;;;;2.17;1.50;;;21.20;83.90;;;;;;4996570;28;20464;-77
2022/11/30 06:10:49;;;;;;;1.93;1.73;;;21.10;83.90;;;;;;4988325;28;20456;-77
2022/11/30 06:13:18;;;;;;;2.30;1.77;;;21.10;84.00;;;;;;4989559;28;20951;-77
2022/11/30 06:15:44;;;;;;;2.40;1.57;;;21.10;84.00;;;;;;4990815;28;20847;-77
2022/11/30 06:18:12;;;;;;;2.20;2.00;;;21.10;84.00;;;;;;4992680;28;20457;-77
2022/11/30 06:20:40;;;;;;;2.10;1.87;;;21.20;84.00;;;;;;4994370;28;20448;-77
2022/11/30 06:23:06;;;;;;;1.90;1.80;;;21.10;83.90;;;;;;4990986;28;20484;-77
2022/11/30 06:25:33;;;;;;;1.60;1.47;;;21.20;83.90;;;;;;4989773;28;20952;-77
2022/11/30 06:28:00;;;;;;;1.80;1.67;;;21.20;83.80;;;;;;4999276;28;20828;-77
2022/11/30 06:30:28;;;;;;;2.20;1.70;;;21.20;83.70;;;;;;5001865;28;20954;-77
2022/11/30 06:32:55;;;;;;;2.27;1.80;;;21.20;83.70;;;;;;4986431;28;20456;-78
2022/11/30 06:35:21;;;;;;;1.63;1.50;;;21.20;83.70;;;;;;4992970;28;20464;-77
2022/11/30 06:37:48;;;;;;;2.65;1.50;;;21.20;83.70;;;;;;4999567;28;20475;-77
2022/11/30 06:40:15;;;;;;;1.40;1.30;;;21.20;83.70;;;;;;4988746;28;20645;-77
2022/11/30 06:42:43;;;;;;;1.83;1.73;;;21.20;83.70;;;;;;4993319;28;20472;-77
2022/11/30 06:45:10;;;;;;;1.70;1.57;;;21.20;83.70;;;;;;5002944;28;20818;-77
2022/11/30 06:47:38;;;;;;;3.00;2.00;;;21.20;83.70;;;;;;4994683;28;20461;-78
2022/11/30 06:50:07;;;;;;;1.90;1.60;;;21.20;83.70;;;;;;4987456;28;20468;-78
2022/11/30 06:52:33;;;;;;;1.90;1.50;;;21.20;83.70;;;;;;4993204;28;20471;-78
2022/11/30 06:55:01;;;;;;;1.70;1.60;;;21.20;83.60;;;;;;4998522;28;20467;-78
2022/11/30 06:57:28;;;;;;;2.70;1.60;;;21.20;83.60;;;;;;5002434;28;20492;-77
2022/11/30 06:59:55;;;;;;;1.80;1.50;;;21.30;83.60;;;;;;5001097;28;20467;-77
2022/11/30 07:02:22;;;;;;;1.73;1.63;;;21.30;83.60;;;;;;4993015;28;20456;-77
2022/11/30 07:04:50;;;;;;;1.97;1.77;;;21.30;83.50;;;;;;4989695;28;20520;-77
2022/11/30 07:07:18;;;;;;;1.80;1.70;;;21.30;83.50;;;;;;5003013;28;20436;-77
2022/11/30 07:09:44;;;;;;;2.27;1.63;;;21.30;83.40;;;;;;4989127;28;20461;-77
2022/11/30 07:12:11;;;;;;;1.47;1.37;;;21.30;83.40;;;;;;4996958;28;20463;-77
2022/11/30 07:14:38;;;;;;;2.43;1.43;;;21.30;83.40;;;;;;5003092;28;20698;-77
2022/11/30 07:17:05;;;;;;;1.73;1.63;;;21.30;83.40;;;;;;4995694;28;20497;-77
2022/11/30 07:19:33;;;;;;;2.10;1.90;;;21.30;83.40;;;;;;4989596;28;20967;-77
2022/11/30 07:22:01;;;;;;;1.90;1.70;;;21.30;83.40;;;;;;4995548;28;20541;-77
2022/11/30 07:27:12;;;;;;;2.13;1.93;;;21.30;83.40;;;;;;4993247;28;20463;-77
2022/11/30 07:29:39;;;;;;;2.00;1.80;;;21.30;83.40;;;;;;4996544;28;20467;-77
2022/11/30 07:32:05;;;;;;;3.03;2.37;;;21.30;83.40;;;;;;4993419;28;20459;-77
2022/11/30 07:34:32;;;;;;;1.60;1.50;;;21.30;83.40;;;;;;4991262;28;20461;-77
2022/11/30 07:36:59;;;;;;;1.53;1.40;;;21.30;83.40;;;;;;5006718;28;20487;-77
2022/11/30 07:39:27;;;;;;;2.00;1.80;;;21.30;83.40;;;;;;4987920;28;20956;-78
2022/11/30 07:41:53;;;;;;;2.20;1.93;;;21.30;83.40;;;;;;4992544;28;20924;-78
2022/11/30 07:44:20;;;;;;;1.60;1.50;;;21.30;83.50;;;;;;4991902;28;20460;-77
2022/11/30 07:46:47;;;;;;;1.97;1.77;;;21.30;83.40;;;;;;4991042;28;20476;-78
2022/11/30 07:49:13;;;;;;;1.87;1.77;;;21.30;83.40;;;;;;4999278;28;20471;-78
2022/11/30 07:51:40;;;;;;;2.03;1.93;;;21.30;83.40;;;;;;4992084;28;20459;-77
2022/11/30 07:54:07;;;;;;;2.03;1.70;;;21.30;83.30;;;;;;4991165;28;20483;-77
2022/11/30 07:56:35;;;;;;;1.73;1.60;;;21.30;83.40;;;;;;4992880;28;20476;-77
2022/11/30 07:59:03;;;;;;;2.20;2.00;;;21.30;83.40;;;;;;4998540;28;20460;-82
2022/11/30 08:01:32;;;;;;;1.73;1.53;;;21.30;83.30;;;;;;4988472;28;21316;-77
2022/11/30 08:03:59;;;;;;;1.67;1.50;;;21.30;83.30;;;;;;4993437;28;20471;-78
2022/11/30 08:06:27;;;;;;;1.60;1.40;;;21.30;83.30;;;;;;5003991;28;20464;-78
2022/11/30 08:08:57;;;;;;;3.57;2.03;;;21.30;83.40;;;;;;4982729;28;20994;-78
2022/11/30 08:11:25;;;;;;;1.70;1.60;;;21.30;83.40;;;;;;4993274;28;20480;-78
2022/11/30 08:13:53;;;;;;;2.57;1.40;;;21.30;83.50;;;;;;4991833;28;20483;-77
2022/11/30 08:16:22;;;;;;;2.37;1.90;;;21.30;83.60;;;;;;4990645;28;20488;-77
2022/11/30 08:18:49;;;;;;;2.20;1.97;;;21.20;83.70;;;;;;4994840;28;20468;-80
2022/11/30 08:21:18;;;;;;;1.73;1.60;;;21.20;84.10;;;;;;4989109;28;20455;-79
2022/11/30 08:23:46;;;;;;;1.77;1.60;;;21.20;84.10;;;;;;4987128;28;20462;-79
2022/11/30 08:26:16;;;;;;;2.17;1.70;;;21.30;84.10;;;;;;4996388;28;20463;-76
2022/11/30 08:28:44;;;;;;;2.07;1.87;;;21.40;84.50;;;;;;4993444;28;20460;-81
2022/11/30 08:31:14;;;;;;;2.80;2.20;;;21.30;84.70;;;;;;5003395;28;20467;-75
2022/11/30 08:33:41;;;;;;;4.23;1.80;;;21.30;85.60;;;;;;4997271;28;20466;-80
2022/11/30 08:36:09;;;;;;;4.70;2.00;;;21.20;86.30;;;;;;4987727;28;20483;-80
2022/11/30 08:38:37;;;;;;;1.90;1.70;;;21.20;85.80;;;;;;4985384;28;20472;-81
2022/11/30 08:41:05;;;;;;;3.50;2.23;;;21.20;86.70;;;;;;4986580;28;20961;-80
2022/11/30 08:43:32;;;;;;;3.63;2.40;;;21.20;86.40;;;;;;4989875;28;20456;-81
2022/11/30 08:45:59;;;;;;;2.80;2.20;;;21.30;86.20;;;;;;4992394;28;20467;-81
2022/11/30 08:48:27;;;;;;;4.90;1.90;;;21.30;85.90;;;;;;4993737;28;20469;-81
2022/11/30 08:50:53;;;;;;;2.20;2.10;;;21.40;85.60;;;;;;4988428;28;20459;-80
2022/11/30 08:53:20;;;;;;;2.17;1.90;;;21.40;85.30;;;;;;4995395;28;20824;-81
2022/11/30 08:55:55;;;;;;;4.50;2.03;;;21.50;85.30;;;;;;4981855;28;20465;-77
2022/11/30 08:58:22;;;;;;;2.33;2.03;;;21.50;85.00;;;;;;4986547;28;20851;-80
2022/11/30 09:00:49;;;;;;;2.10;1.90;;;21.50;85.10;;;;;;4995231;28;20459;-82
2022/11/30 09:03:15;;;;;;;2.40;1.97;;;21.50;84.90;;;;;;4998938;28;20464;-83
2022/11/30 09:05:44;;;;;;;1.97;1.87;;;21.50;84.90;;;;;;4992143;28;20463;-81
2022/11/30 09:08:11;;;;;;;2.87;2.20;;;21.50;84.80;;;;;;4994288;28;20445;-81
2022/11/30 09:14:02;;;;;;;3.80;2.13;;;21.50;84.70;;;;;;4974174;28;20532;-83
2022/11/30 09:16:29;;;;;;;3.97;2.27;;;21.50;84.70;;;;;;4986784;28;20526;-81
2022/11/30 09:18:56;;;;;;;2.50;2.30;;;21.50;84.60;;;;;;4997590;28;20467;-81
2022/11/30 09:21:25;;;;;;;2.80;2.07;;;21.50;84.70;;;;;;4985735;28;20448;-81
2022/11/30 09:23:52;;;;;;;2.37;2.17;;;21.50;84.60;;;;;;4990895;28;20456;-81
2022/11/30 09:26:23;;;;;;;2.77;2.00;;;21.40;84.60;;;;;;4986653;28;20464;-79
2022/11/30 09:28:52;;;;;;;3.97;2.13;;;21.40;84.60;;;;;;4997788;28;20802;-80
2022/11/30 09:31:20;;;;;;;2.00;1.80;;;21.40;84.60;;;;;;4988570;28;20467;-82
2022/11/30 09:33:48;;;;;;;2.50;2.17;;;21.40;84.60;;;;;;5002881;28;20457;-81
2022/11/30 09:36:16;;;;;;;2.20;2.00;;;21.40;84.60;;;;;;4988941;28;20455;-82
2022/11/30 09:38:45;;;;;;;4.40;2.07;;;21.40;84.70;;;;;;4989924;28;20475;-81
2022/11/30 09:41:31;;;;;;;2.60;2.40;;;21.40;84.70;;;;;;4995287;28;20440;-82
2022/11/30 09:44:09;;;;;;;2.40;2.03;;;21.30;84.60;;;;;;4989235;28;20859;-81
2022/11/30 09:46:39;;;;;;;2.20;1.80;;;21.30;84.60;;;;;;4996375;28;20452;-82
2022/11/30 09:49:17;;;;;;;2.80;2.60;;;21.30;84.50;;;;;;4996932;28;20448;-82
2022/11/30 09:51:46;;;;;;;2.93;2.37;;;21.30;84.50;;;;;;4974538;28;20437;-81
2022/11/30 09:54:19;;;;;;;4.23;2.30;;;21.30;84.60;;;;;;4989885;28;20468;-83
2022/11/30 09:56:46;;;;;;;2.60;2.20;;;21.30;84.50;;;;;;4995785;28;20483;-81
2022/11/30 09:59:19;;;;;;;2.03;1.83;;;21.30;84.50;;;;;;4999151;28;20454;-80
2022/11/30 10:01:47;;;;;;;2.90;2.60;;;21.30;84.50;;;;;;5001797;28;20522;-79
2022/11/30 10:04:21;;;;;;;3.27;2.27;;;21.30;84.40;;;;;;4990870;28;20952;-81
2022/11/30 10:06:58;;;;;;;2.40;2.17;;;21.30;84.40;;;;;;4999193;28;20474;-82
2022/11/30 10:09:44;;;;;;;2.63;2.30;;;21.40;84.40;;;;;;4994701;28;20462;-82
2022/11/30 10:12:16;;;;;;;2.47;2.23;;;21.30;84.20;;;;;;4988474;28;20994;-82
2022/11/30 10:15:08;;;;;;;2.43;2.23;;;21.40;84.30;;;;;;4989812;28;20453;-82
2022/11/30 10:17:45;;;;;;;2.90;2.37;;;21.40;84.30;;;;;;4995799;28;20480;-82
2022/11/30 10:20:27;;;;;;;2.23;2.03;;;21.30;84.10;;;;;;4996276;28;20939;-81
2022/11/30 10:23:08;;;;;;;3.03;1.90;;;21.40;84.20;;;;;;4996021;28;20784;-80
2022/11/30 10:25:49;;;;;;;2.43;2.17;;;21.40;84.10;;;;;;4992864;28;20467;-82
2022/11/30 10:28:18;;;;;;;2.50;2.00;;;21.40;84.10;;;;;;4996169;28;20526;-81
2022/11/30 10:30:46;;;;;;;2.30;2.10;;;21.30;84.50;;;;;;5004982;28;20456;-80
2022/11/30 10:33:18;;;;;;;2.23;2.03;;;21.40;84.30;;;;;;4995589;28;20464;-78
2022/11/30 10:35:49;;;;;;;2.27;2.07;;;21.40;84.20;;;;;;4989326;28;20788;-79
2022/11/30 10:38:22;;;;;;;2.33;2.13;;;21.40;84.60;;;;;;5000798;28;20942;-78
2022/11/30 10:40:55;;;;;;;3.23;2.33;;;21.40;84.30;;;;;;4985562;28;20554;-84
2022/11/30 10:43:28;;;;;;;2.43;2.23;;;21.50;85.00;;;;;;4991987;28;20855;-83
2022/11/30 10:45:55;;;;;;;2.20;2.00;;;21.60;84.60;;;;;;4989284;28;20448;-83
2022/11/30 10:48:28;;;;;;;2.40;1.80;;;21.60;84.60;;;;;;4994509;28;20815;-84
2022/11/30 10:50:55;;;;;;;2.50;2.30;;;21.70;84.50;;;;;;5000774;28;20476;-84
2022/11/30 10:53:22;;;;;;;3.27;2.67;;;21.70;84.50;;;;;;5000612;28;20481;-84
2022/11/30 10:55:57;;;;;;;2.53;2.33;;;21.70;84.50;;;;;;5013756;28;20434;-84
2022/11/30 10:58:28;;;;;;;2.97;2.00;;;21.70;84.70;;;;;;4990935;28;20482;-84
2022/11/30 11:01:02;;;;;;;2.33;2.13;;;21.70;84.60;;;;;;4988865;28;20459;-83
2022/11/30 11:03:29;;;;;;;2.13;1.93;;;21.70;84.90;;;;;;5000222;28;21006;-86
2022/11/30 11:06:20;;;;;;;2.40;2.20;;;21.70;84.80;;;;;;4991174;28;20832;-84
2022/11/30 11:08:47;;;;;;;2.03;1.90;;;21.70;84.90;;;;;;5006009;28;20461;-83
2022/11/30 11:11:31;;;;;;;2.50;2.30;;;21.80;84.90;;;;;;4995777;28;20464;-88
2022/11/30 11:14:13;;;;;;;2.90;2.27;;;21.80;84.80;;;;;;4977874;28;20461;-84
2022/11/30 11:16:52;;;;;;;2.27;2.07;;;21.80;84.70;;;;;;4984257;28;20487;-85
2022/11/30 11:19:32;;;;;;;2.47;2.27;;;21.80;84.90;;;;;;4982020;28;20471;-83
2022/11/30 11:22:00;;;;;;;3.10;2.60;;;21.80;84.90;;;;;;4979989;28;20455;-85
2022/11/30 11:24:28;;;;;;;2.50;2.27;;;21.80;84.90;;;;;;4981068;28;20971;-85
2022/11/30 11:26:57;;;;;;;2.50;2.20;;;21.80;85.10;;;;;;4982946;28;20605;-84
2022/11/30 11:29:32;;;;;;;2.83;2.33;;;21.80;85.10;;;;;;4994500;28;20458;-84
2022/11/30 11:32:20;;;;;;;3.00;1.90;;;21.80;85.10;;;;;;4990712;28;20456;-85
2022/11/30 11:34:48;;;;;;;2.80;2.30;;;21.80;85.30;;;;;;4999966;28;21591;-84
2022/11/30 11:37:19;;;;;;;2.77;2.40;;;21.80;85.50;;;;;;4988600;28;20491;-83
2022/11/30 11:40:05;;;;;;;3.40;2.80;;;21.80;85.50;;;;;;4989075;28;20484;-83
2022/11/30 11:42:37;;;;;;;2.93;2.43;;;21.80;85.50;;;;;;4995723;28;20451;-85
2022/11/30 11:45:05;;;;;;;2.93;2.63;;;21.80;85.60;;;;;;4993733;28;20455;-83
2022/11/30 11:47:38;;;;;;;3.70;2.57;;;21.80;85.40;;;;;;4991251;28;20464;-87
2022/11/30 11:50:24;;;;;;;3.63;2.73;;;21.80;85.60;;;;;;4982311;28;20976;-84
2022/11/30 11:53:07;;;;;;;3.10;2.77;;;21.80;85.90;;;;;;4999683;28;20462;-84
2022/11/30 11:55:38;;;;;;;3.40;2.57;;;21.80;86.40;;;;;;5005265;28;20452;-93
2022/11/30 11:58:14;;;;;;;2.93;2.63;;;21.70;86.50;;;;;;4995522;28;21017;-88
2022/11/30 12:00:41;;;;;;;3.67;2.63;;;21.80;86.90;;;;;;5007208;28;20818;-86
2022/11/30 12:03:17;;;;;;;4.23;2.73;;;21.70;86.80;;;;;;5006981;28;20471;-84
2022/11/30 12:05:49;;;;;;;3.27;2.93;;;21.70;87.00;;;;;;4997693;28;20465;-87
2022/11/30 12:08:19;;;;;;;5.57;2.90;;;21.70;86.90;;;;;;5001586;28;20495;-87
2022/11/30 12:10:51;;;;;;;2.80;2.60;;;21.70;87.00;;;;;;5004008;28;20437;-83
2022/11/30 12:13:21;;;;;;;6.33;2.80;;;21.80;87.00;;;;;;4991680;28;21005;-83
2022/11/30 12:16:00;;;;;;;5.47;2.73;;;21.80;86.80;;;;;;4984368;28;20523;-84
2022/11/30 12:18:31;;;;;;;4.13;2.77;;;21.80;86.80;;;;;;4991159;28;20480;-84
2022/11/30 12:21:03;;;;;;;4.60;3.50;;;21.80;87.00;;;;;;4988823;28;20464;-84
2022/11/30 12:23:58;;;;;;;4.00;3.13;;;21.80;87.10;;;;;;4989766;28;20601;-84
2022/11/30 12:26:32;;;;;;;4.63;3.27;;;21.80;87.00;;;;;;4984168;28;20464;-88
2022/11/30 12:29:25;;;;;;;5.57;3.53;;;21.90;87.00;;;;;;4993343;28;20459;-83
2022/11/30 12:32:07;;;;;;;5.43;4.10;;;21.90;86.80;;;;;;4984907;28;20459;-82
2022/11/30 12:34:49;;;;;;;3.13;2.77;;;21.80;87.00;;;;;;4981825;28;20947;-84
2022/11/30 12:37:23;;;;;;;3.57;3.20;;;21.80;87.00;;;;;;4982793;28;20851;-82
2022/11/30 12:40:02;;;;;;;3.80;2.70;;;21.80;87.20;;;;;;4982299;28;20455;-86
2022/11/30 12:42:37;;;;;;;3.50;3.20;;;21.80;87.30;;;;;;4984287;28;20550;-84
2022/11/30 12:45:15;;;;;;;4.70;3.03;;;21.70;87.60;;;;;;4999908;28;20470;-83
2022/11/30 12:47:52;;;;;;;3.70;3.23;;;21.70;87.50;;;;;;4990399;28;20506;-85
2022/11/30 12:50:38;;;;;;;3.80;2.60;;;21.80;87.40;;;;;;4989021;28;20464;-83
2022/11/30 12:53:15;;;;;;;4.27;3.30;;;21.80;87.60;;;;;;4982039;28;20456;-83
2022/11/30 12:55:51;;;;;;;2.60;2.40;;;21.80;87.20;;;;;;4989006;28;20460;-83
2022/11/30 12:58:25;;;;;;;3.83;3.20;;;21.90;87.10;;;;;;4985962;28;20486;-82
2022/11/30 13:01:08;;;;;;;3.13;2.70;;;21.90;87.10;;;;;;4999793;28;20818;-82
2022/11/30 13:03:51;;;;;;;2.40;2.20;;;21.90;87.00;;;;;;4981852;28;20464;-86
2022/11/30 13:06:23;;;;;;;5.10;3.30;;;21.90;87.30;;;;;;5004099;28;20455;-83